sensor_id;sensor_type;location;lat;lon;timestamp;temperature;humidity
49489;SHT31;35382;51.484;11.476;2023-10-19T00:01:03;7.33;85.54
49489;SHT31;35382;51.484;11.476;2023-10-19T00:03:28;7.47;84.82
49489;SHT31;35382;51.484;11.476;2023-10-19T00:05:55;7.58;84.38
49489;SHT31;35382;51.484;11.476;2023-10-19T00:08:21;7.60;84.15
49489;SHT31;35382;51.484;11.476;2023-10-19T00:10:52;7.55;84.85
49489;SHT31;35382;51.484;11.476;2023-10-19T00:13:18;7.52;84.98
49489;SHT31;35382;51.484;11.476;2023-10-19T00:15:43;7.40;86.24
49489;SHT31;35382;51.484;11.476;2023-10-19T00:18:09;7.66;84.92
49489;SHT31;35382;51.484;11.476;2023-10-19T00:20:34;7.40;86.26
49489;SHT31;35382;51.484;11.476;2023-10-19T00:22:59;7.47;86.01
49489;SHT31;35382;51.484;11.476;2023-10-19T00:25:25;7.30;86.96
49489;SHT31;35382;51.484;11.476;2023-10-19T00:27:51;7.30;87.46
49489;SHT31;35382;51.484;11.476;2023-10-19T00:30:16;7.16;88.33
49489;SHT31;35382;51.484;11.476;2023-10-19T00:32:42;7.11;88.86
49489;SHT31;35382;51.484;11.476;2023-10-19T00:35:07;7.11;88.75
49489;SHT31;35382;51.484;11.476;2023-10-19T00:37:33;7.09;88.99
49489;SHT31;35382;51.484;11.476;2023-10-19T00:39:59;7.13;89.21
49489;SHT31;35382;51.484;11.476;2023-10-19T00:42:27;7.26;89.01
49489;SHT31;35382;51.484;11.476;2023-10-19T00:44:53;7.19;89.14
49489;SHT31;35382;51.484;11.476;2023-10-19T00:47:18;7.11;89.90
49489;SHT31;35382;51.484;11.476;2023-10-19T00:49:47;7.09;90.32
49489;SHT31;35382;51.484;11.476;2023-10-19T00:52:14;7.13;89.84
49489;SHT31;35382;51.484;11.476;2023-10-19T00:54:40;7.13;89.58
49489;SHT31;35382;51.484;11.476;2023-10-19T00:57:09;7.20;90.24
49489;SHT31;35382;51.484;11.476;2023-10-19T00:59:34;7.16;89.81
49489;SHT31;35382;51.484;11.476;2023-10-19T01:02:01;7.26;89.49
49489;SHT31;35382;51.484;11.476;2023-10-19T01:04:27;7.23;89.54
49489;SHT31;35382;51.484;11.476;2023-10-19T01:06:52;7.36;89.11
49489;SHT31;35382;51.484;11.476;2023-10-19T01:09:17;7.23;89.71
49489;SHT31;35382;51.484;11.476;2023-10-19T01:11:43;7.43;87.47
49489;SHT31;35382;51.484;11.476;2023-10-19T01:14:18;7.36;88.28
49489;SHT31;35382;51.484;11.476;2023-10-19T01:16:44;7.36;89.18
49489;SHT31;35382;51.484;11.476;2023-10-19T01:19:10;7.22;89.95
49489;SHT31;35382;51.484;11.476;2023-10-19T01:21:36;7.32;89.85
49489;SHT31;35382;51.484;11.476;2023-10-19T01:24:06;7.29;90.60
49489;SHT31;35382;51.484;11.476;2023-10-19T01:26:34;7.30;90.42
49489;SHT31;35382;51.484;11.476;2023-10-19T01:29:00;7.32;89.98
49489;SHT31;35382;51.484;11.476;2023-10-19T01:31:26;7.18;90.85
49489;SHT31;35382;51.484;11.476;2023-10-19T01:33:51;7.13;91.56
49489;SHT31;35382;51.484;11.476;2023-10-19T01:36:17;7.12;91.95
49489;SHT31;35382;51.484;11.476;2023-10-19T01:38:42;7.06;92.11
49489;SHT31;35382;51.484;11.476;2023-10-19T01:41:09;7.08;92.19
49489;SHT31;35382;51.484;11.476;2023-10-19T01:43:37;7.35;90.25
49489;SHT31;35382;51.484;11.476;2023-10-19T01:46:03;7.25;90.26
49489;SHT31;35382;51.484;11.476;2023-10-19T01:48:28;7.43;89.65
49489;SHT31;35382;51.484;11.476;2023-10-19T01:50:54;7.27;90.34
49489;SHT31;35382;51.484;11.476;2023-10-19T01:53:20;7.18;91.01
49489;SHT31;35382;51.484;11.476;2023-10-19T01:55:45;7.16;91.06
49489;SHT31;35382;51.484;11.476;2023-10-19T01:58:12;7.05;91.79
49489;SHT31;35382;51.484;11.476;2023-10-19T02:00:37;7.11;91.87
49489;SHT31;35382;51.484;11.476;2023-10-19T02:03:07;7.13;92.05
49489;SHT31;35382;51.484;11.476;2023-10-19T02:05:33;7.09;91.79
49489;SHT31;35382;51.484;11.476;2023-10-19T02:07:58;7.06;92.36
49489;SHT31;35382;51.484;11.476;2023-10-19T02:10:24;7.03;92.56
49489;SHT31;35382;51.484;11.476;2023-10-19T02:12:49;7.02;93.12
49489;SHT31;35382;51.484;11.476;2023-10-19T02:15:14;7.06;92.83
49489;SHT31;35382;51.484;11.476;2023-10-19T02:17:40;7.06;92.83
49489;SHT31;35382;51.484;11.476;2023-10-19T02:20:06;7.03;93.21
49489;SHT31;35382;51.484;11.476;2023-10-19T02:22:31;7.12;92.79
49489;SHT31;35382;51.484;11.476;2023-10-19T02:24:57;7.29;91.81
49489;SHT31;35382;51.484;11.476;2023-10-19T02:27:22;7.30;91.69
49489;SHT31;35382;51.484;11.476;2023-10-19T02:29:47;7.37;91.17
49489;SHT31;35382;51.484;11.476;2023-10-19T02:32:13;7.33;91.37
49489;SHT31;35382;51.484;11.476;2023-10-19T02:34:38;7.23;92.23
49489;SHT31;35382;51.484;11.476;2023-10-19T02:37:04;7.12;92.93
49489;SHT31;35382;51.484;11.476;2023-10-19T02:39:29;7.23;93.39
49489;SHT31;35382;51.484;11.476;2023-10-19T02:41:54;7.29;92.59
49489;SHT31;35382;51.484;11.476;2023-10-19T02:44:22;7.25;92.55
49489;SHT31;35382;51.484;11.476;2023-10-19T02:46:52;7.18;93.36
49489;SHT31;35382;51.484;11.476;2023-10-19T02:49:19;7.27;93.15
49489;SHT31;35382;51.484;11.476;2023-10-19T02:51:47;7.12;93.40
49489;SHT31;35382;51.484;11.476;2023-10-19T02:54:14;7.13;93.97
49489;SHT31;35382;51.484;11.476;2023-10-19T02:56:40;7.08;93.89
49489;SHT31;35382;51.484;11.476;2023-10-19T02:59:05;7.05;93.83
49489;SHT31;35382;51.484;11.476;2023-10-19T03:01:31;7.01;94.24
49489;SHT31;35382;51.484;11.476;2023-10-19T03:03:57;6.99;94.36
49489;SHT31;35382;51.484;11.476;2023-10-19T03:06:23;6.98;94.76
49489;SHT31;35382;51.484;11.476;2023-10-19T03:08:49;6.99;95.15
49489;SHT31;35382;51.484;11.476;2023-10-19T03:11:15;7.05;94.99
49489;SHT31;35382;51.484;11.476;2023-10-19T03:13:40;6.91;94.99
49489;SHT31;35382;51.484;11.476;2023-10-19T03:16:09;6.93;94.98
49489;SHT31;35382;51.484;11.476;2023-10-19T03:18:35;7.06;94.92
49489;SHT31;35382;51.484;11.476;2023-10-19T03:21:02;7.05;95.18
49489;SHT31;35382;51.484;11.476;2023-10-19T03:23:28;7.06;95.15
49489;SHT31;35382;51.484;11.476;2023-10-19T03:25:55;7.05;94.95
49489;SHT31;35382;51.484;11.476;2023-10-19T03:28:20;6.99;95.55
49489;SHT31;35382;51.484;11.476;2023-10-19T03:30:46;6.99;95.58
49489;SHT31;35382;51.484;11.476;2023-10-19T03:33:11;6.99;95.82
49489;SHT31;35382;51.484;11.476;2023-10-19T03:35:37;7.06;95.79
49489;SHT31;35382;51.484;11.476;2023-10-19T03:38:03;6.98;96.19
49489;SHT31;35382;51.484;11.476;2023-10-19T03:40:29;7.03;96.29
49489;SHT31;35382;51.484;11.476;2023-10-19T03:42:54;7.13;96.17
49489;SHT31;35382;51.484;11.476;2023-10-19T03:45:20;7.16;95.84
49489;SHT31;35382;51.484;11.476;2023-10-19T03:47:45;7.11;96.10
49489;SHT31;35382;51.484;11.476;2023-10-19T03:50:11;7.11;96.09
49489;SHT31;35382;51.484;11.476;2023-10-19T03:52:37;7.15;96.20
49489;SHT31;35382;51.484;11.476;2023-10-19T03:55:03;7.12;96.04
49489;SHT31;35382;51.484;11.476;2023-10-19T03:57:29;7.13;95.89
49489;SHT31;35382;51.484;11.476;2023-10-19T03:59:56;7.11;95.92
49489;SHT31;35382;51.484;11.476;2023-10-19T04:02:21;7.11;96.12
49489;SHT31;35382;51.484;11.476;2023-10-19T04:04:47;7.18;96.22
49489;SHT31;35382;51.484;11.476;2023-10-19T04:07:13;7.02;96.21
49489;SHT31;35382;51.484;11.476;2023-10-19T04:09:39;7.06;96.53
49489;SHT31;35382;51.484;11.476;2023-10-19T04:12:05;7.08;95.95
49489;SHT31;35382;51.484;11.476;2023-10-19T04:14:30;7.15;96.13
49489;SHT31;35382;51.484;11.476;2023-10-19T04:16:55;7.11;96.27
49489;SHT31;35382;51.484;11.476;2023-10-19T04:19:21;7.12;96.12
49489;SHT31;35382;51.484;11.476;2023-10-19T04:21:46;7.03;96.38
49489;SHT31;35382;51.484;11.476;2023-10-19T04:24:14;7.03;96.61
49489;SHT31;35382;51.484;11.476;2023-10-19T04:26:40;6.95;97.02
49489;SHT31;35382;51.484;11.476;2023-10-19T04:29:06;7.05;96.89
49489;SHT31;35382;51.484;11.476;2023-10-19T04:31:32;7.18;96.87
49489;SHT31;35382;51.484;11.476;2023-10-19T04:34:00;7.08;96.86
49489;SHT31;35382;51.484;11.476;2023-10-19T04:36:26;7.01;97.10
49489;SHT31;35382;51.484;11.476;2023-10-19T04:38:51;7.02;97.37
49489;SHT31;35382;51.484;11.476;2023-10-19T04:41:17;7.08;97.14
49489;SHT31;35382;51.484;11.476;2023-10-19T04:43:42;7.03;97.27
49489;SHT31;35382;51.484;11.476;2023-10-19T04:46:09;7.32;97.12
49489;SHT31;35382;51.484;11.476;2023-10-19T04:48:35;7.16;96.99
49489;SHT31;35382;51.484;11.476;2023-10-19T04:51:00;7.35;96.67
49489;SHT31;35382;51.484;11.476;2023-10-19T04:53:25;7.27;96.61
49489;SHT31;35382;51.484;11.476;2023-10-19T04:55:51;7.23;96.94
49489;SHT31;35382;51.484;11.476;2023-10-19T04:58:16;7.30;96.54
49489;SHT31;35382;51.484;11.476;2023-10-19T05:00:41;7.26;96.48
49489;SHT31;35382;51.484;11.476;2023-10-19T05:03:07;7.13;96.82
49489;SHT31;35382;51.484;11.476;2023-10-19T05:05:32;7.45;96.81
49489;SHT31;35382;51.484;11.476;2023-10-19T05:07:58;7.42;96.04
49489;SHT31;35382;51.484;11.476;2023-10-19T05:10:23;7.39;95.87
49489;SHT31;35382;51.484;11.476;2023-10-19T05:12:48;7.27;96.43
49489;SHT31;35382;51.484;11.476;2023-10-19T05:15:14;7.37;96.33
49489;SHT31;35382;51.484;11.476;2023-10-19T05:17:39;7.26;96.52
49489;SHT31;35382;51.484;11.476;2023-10-19T05:20:05;7.30;96.73
49489;SHT31;35382;51.484;11.476;2023-10-19T05:22:31;7.33;97.00
49489;SHT31;35382;51.484;11.476;2023-10-19T05:24:56;7.39;96.85
49489;SHT31;35382;51.484;11.476;2023-10-19T05:27:21;7.52;96.42
49489;SHT31;35382;51.484;11.476;2023-10-19T05:29:47;7.43;96.15
49489;SHT31;35382;51.484;11.476;2023-10-19T05:32:12;7.43;96.52
49489;SHT31;35382;51.484;11.476;2023-10-19T05:34:38;7.43;96.49
49489;SHT31;35382;51.484;11.476;2023-10-19T05:37:03;7.32;96.89
49489;SHT31;35382;51.484;11.476;2023-10-19T05:39:29;7.55;97.00
49489;SHT31;35382;51.484;11.476;2023-10-19T05:41:57;7.30;96.79
49489;SHT31;35382;51.484;11.476;2023-10-19T05:44:23;7.42;97.11
49489;SHT31;35382;51.484;11.476;2023-10-19T05:46:48;7.33;97.03
49489;SHT31;35382;51.484;11.476;2023-10-19T05:49:13;7.39;97.16
49489;SHT31;35382;51.484;11.476;2023-10-19T05:51:39;7.32;97.23
49489;SHT31;35382;51.484;11.476;2023-10-19T05:54:04;7.26;97.31
49489;SHT31;35382;51.484;11.476;2023-10-19T05:56:30;7.46;97.48
49489;SHT31;35382;51.484;11.476;2023-10-19T05:58:58;7.46;97.27
49489;SHT31;35382;51.484;11.476;2023-10-19T06:01:24;7.45;97.14
49489;SHT31;35382;51.484;11.476;2023-10-19T06:03:50;7.42;97.16
49489;SHT31;35382;51.484;11.476;2023-10-19T06:06:15;7.43;96.95
49489;SHT31;35382;51.484;11.476;2023-10-19T06:08:42;7.50;96.90
49489;SHT31;35382;51.484;11.476;2023-10-19T06:11:08;7.42;97.11
49489;SHT31;35382;51.484;11.476;2023-10-19T06:13:33;7.52;96.79
49489;SHT31;35382;51.484;11.476;2023-10-19T06:15:59;7.62;96.76
49489;SHT31;35382;51.484;11.476;2023-10-19T06:18:24;7.52;96.78
49489;SHT31;35382;51.484;11.476;2023-10-19T06:20:49;7.67;96.54
49489;SHT31;35382;51.484;11.476;2023-10-19T06:23:15;7.55;96.22
49489;SHT31;35382;51.484;11.476;2023-10-19T06:25:40;7.46;96.82
49489;SHT31;35382;51.484;11.476;2023-10-19T06:28:06;7.45;97.21
49489;SHT31;35382;51.484;11.476;2023-10-19T06:30:31;7.49;97.25
49489;SHT31;35382;51.484;11.476;2023-10-19T06:32:58;7.47;97.27
49489;SHT31;35382;51.484;11.476;2023-10-19T06:35:23;7.43;97.48
49489;SHT31;35382;51.484;11.476;2023-10-19T06:37:53;7.50;97.63
49489;SHT31;35382;51.484;11.476;2023-10-19T06:40:19;7.45;97.53
49489;SHT31;35382;51.484;11.476;2023-10-19T06:42:46;7.47;97.60
49489;SHT31;35382;51.484;11.476;2023-10-19T06:45:13;7.62;97.50
49489;SHT31;35382;51.484;11.476;2023-10-19T06:47:40;7.83;97.07
49489;SHT31;35382;51.484;11.476;2023-10-19T06:50:06;7.73;96.27
49489;SHT31;35382;51.484;11.476;2023-10-19T06:52:34;7.60;96.54
49489;SHT31;35382;51.484;11.476;2023-10-19T06:55:03;7.71;96.59
49489;SHT31;35382;51.484;11.476;2023-10-19T06:57:28;7.79;96.39
49489;SHT31;35382;51.484;11.476;2023-10-19T06:59:54;7.77;96.17
49489;SHT31;35382;51.484;11.476;2023-10-19T07:02:22;7.79;96.53
49489;SHT31;35382;51.484;11.476;2023-10-19T07:04:48;7.76;96.15
49489;SHT31;35382;51.484;11.476;2023-10-19T07:07:16;7.70;96.35
49489;SHT31;35382;51.484;11.476;2023-10-19T07:09:41;7.71;96.71
49489;SHT31;35382;51.484;11.476;2023-10-19T07:12:07;7.89;96.09
49489;SHT31;35382;51.484;11.476;2023-10-19T07:14:33;7.80;95.92
49489;SHT31;35382;51.484;11.476;2023-10-19T07:16:59;7.86;96.27
49489;SHT31;35382;51.484;11.476;2023-10-19T07:19:25;7.86;96.30
49489;SHT31;35382;51.484;11.476;2023-10-19T07:21:51;7.73;96.54
49489;SHT31;35382;51.484;11.476;2023-10-19T07:24:17;7.80;96.70
49489;SHT31;35382;51.484;11.476;2023-10-19T07:26:42;7.73;97.06
49489;SHT31;35382;51.484;11.476;2023-10-19T07:29:07;7.81;96.75
49489;SHT31;35382;51.484;11.476;2023-10-19T07:31:34;7.73;97.06
49489;SHT31;35382;51.484;11.476;2023-10-19T07:33:59;7.83;97.16
49489;SHT31;35382;51.484;11.476;2023-10-19T07:36:25;7.79;97.11
49489;SHT31;35382;51.484;11.476;2023-10-19T07:38:50;7.73;97.45
49489;SHT31;35382;51.484;11.476;2023-10-19T07:41:16;7.80;97.67
49489;SHT31;35382;51.484;11.476;2023-10-19T07:43:42;7.77;97.78
49489;SHT31;35382;51.484;11.476;2023-10-19T07:46:07;7.74;97.74
49489;SHT31;35382;51.484;11.476;2023-10-19T07:48:33;7.80;97.75
49489;SHT31;35382;51.484;11.476;2023-10-19T07:50:59;7.94;97.74
49489;SHT31;35382;51.484;11.476;2023-10-19T07:53:27;7.95;96.30
49489;SHT31;35382;51.484;11.476;2023-10-19T07:55:53;7.77;96.92
49489;SHT31;35382;51.484;11.476;2023-10-19T07:58:18;7.70;97.30
49489;SHT31;35382;51.484;11.476;2023-10-19T08:00:45;7.73;97.59
49489;SHT31;35382;51.484;11.476;2023-10-19T08:03:11;7.70;97.64
49489;SHT31;35382;51.484;11.476;2023-10-19T08:05:36;7.67;97.86
49489;SHT31;35382;51.484;11.476;2023-10-19T08:08:02;7.94;97.88
49489;SHT31;35382;51.484;11.476;2023-10-19T08:10:28;8.15;97.12
49489;SHT31;35382;51.484;11.476;2023-10-19T08:12:54;8.24;96.29
49489;SHT31;35382;51.484;11.476;2023-10-19T08:15:19;8.23;95.68
49489;SHT31;35382;51.484;11.476;2023-10-19T08:17:47;8.42;95.06
49489;SHT31;35382;51.484;11.476;2023-10-19T08:20:14;8.33;95.63
49489;SHT31;35382;51.484;11.476;2023-10-19T08:22:39;8.38;96.20
49489;SHT31;35382;51.484;11.476;2023-10-19T08:25:08;8.52;96.09
49489;SHT31;35382;51.484;11.476;2023-10-19T08:27:34;8.48;95.84
49489;SHT31;35382;51.484;11.476;2023-10-19T08:29:59;8.65;94.92
49489;SHT31;35382;51.484;11.476;2023-10-19T08:32:24;8.71;94.77
49489;SHT31;35382;51.484;11.476;2023-10-19T08:34:50;8.60;95.20
49489;SHT31;35382;51.484;11.476;2023-10-19T08:37:15;8.73;94.81
49489;SHT31;35382;51.484;11.476;2023-10-19T08:39:41;8.71;95.14
49489;SHT31;35382;51.484;11.476;2023-10-19T08:42:06;8.73;95.57
49489;SHT31;35382;51.484;11.476;2023-10-19T08:44:35;8.75;95.57
49489;SHT31;35382;51.484;11.476;2023-10-19T08:47:01;8.75;95.46
49489;SHT31;35382;51.484;11.476;2023-10-19T08:49:27;8.76;94.84
49489;SHT31;35382;51.484;11.476;2023-10-19T08:51:54;8.85;94.95
49489;SHT31;35382;51.484;11.476;2023-10-19T08:54:20;8.88;95.24
49489;SHT31;35382;51.484;11.476;2023-10-19T08:56:45;8.86;95.53
49489;SHT31;35382;51.484;11.476;2023-10-19T08:59:11;8.88;95.41
49489;SHT31;35382;51.484;11.476;2023-10-19T09:01:39;8.93;95.54
49489;SHT31;35382;51.484;11.476;2023-10-19T09:04:05;8.99;95.08
49489;SHT31;35382;51.484;11.476;2023-10-19T09:06:32;9.01;95.21
49489;SHT31;35382;51.484;11.476;2023-10-19T09:08:59;9.05;95.20
49489;SHT31;35382;51.484;11.476;2023-10-19T09:11:24;9.14;95.33
49489;SHT31;35382;51.484;11.476;2023-10-19T09:13:51;9.18;95.20
49489;SHT31;35382;51.484;11.476;2023-10-19T09:16:21;9.23;95.07
49489;SHT31;35382;51.484;11.476;2023-10-19T09:18:48;9.14;95.26
49489;SHT31;35382;51.484;11.476;2023-10-19T09:21:18;9.12;95.40
49489;SHT31;35382;51.484;11.476;2023-10-19T09:23:44;9.26;94.70
49489;SHT31;35382;51.484;11.476;2023-10-19T09:26:10;9.26;95.00
49489;SHT31;35382;51.484;11.476;2023-10-19T09:28:36;9.50;94.30
49489;SHT31;35382;51.484;11.476;2023-10-19T09:31:03;9.47;94.52
49489;SHT31;35382;51.484;11.476;2023-10-19T09:33:31;9.47;94.43
49489;SHT31;35382;51.484;11.476;2023-10-19T09:36:00;9.54;94.52
49489;SHT31;35382;51.484;11.476;2023-10-19T09:38:25;9.66;94.59
49489;SHT31;35382;51.484;11.476;2023-10-19T09:40:52;9.62;94.72
49489;SHT31;35382;51.484;11.476;2023-10-19T09:43:44;9.72;94.70
49489;SHT31;35382;51.484;11.476;2023-10-19T09:46:26;9.60;94.28
49489;SHT31;35382;51.484;11.476;2023-10-19T09:48:52;9.62;94.45
49489;SHT31;35382;51.484;11.476;2023-10-19T09:51:18;9.73;94.55
49489;SHT31;35382;51.484;11.476;2023-10-19T09:54:32;9.98;93.66
49489;SHT31;35382;51.484;11.476;2023-10-19T09:56:40;10.06;93.96
49489;SHT31;35382;51.484;11.476;2023-10-19T09:59:10;10.20;93.83
49489;SHT31;35382;51.484;11.476;2023-10-19T10:04:35;10.34;93.49
49489;SHT31;35382;51.484;11.476;2023-10-19T10:07:04;10.36;92.96
49489;SHT31;35382;51.484;11.476;2023-10-19T10:09:30;10.33;93.32
49489;SHT31;35382;51.484;11.476;2023-10-19T10:11:56;10.34;93.15
49489;SHT31;35382;51.484;11.476;2023-10-19T10:14:27;10.33;93.94
49489;SHT31;35382;51.484;11.476;2023-10-19T10:17:02;10.55;93.48
49489;SHT31;35382;51.484;11.476;2023-10-19T10:19:28;10.67;92.91
49489;SHT31;35382;51.484;11.476;2023-10-19T10:22:13;10.81;92.06
49489;SHT31;35382;51.484;11.476;2023-10-19T10:24:42;10.88;92.66
49489;SHT31;35382;51.484;11.476;2023-10-19T10:27:07;10.96;92.96
49489;SHT31;35382;51.484;11.476;2023-10-19T10:29:33;11.19;92.44
49489;SHT31;35382;51.484;11.476;2023-10-19T10:31:58;11.35;91.60
49489;SHT31;35382;51.484;11.476;2023-10-19T10:37:06;11.38;91.23
49489;SHT31;35382;51.484;11.476;2023-10-19T10:39:31;11.29;91.64
49489;SHT31;35382;51.484;11.476;2023-10-19T10:41:58;11.11;92.01
49489;SHT31;35382;51.484;11.476;2023-10-19T10:44:47;11.12;92.07
49489;SHT31;35382;51.484;11.476;2023-10-19T10:47:20;11.20;91.99
49489;SHT31;35382;51.484;11.476;2023-10-19T10:49:54;11.25;92.01
49489;SHT31;35382;51.484;11.476;2023-10-19T10:52:36;11.36;92.01
49489;SHT31;35382;51.484;11.476;2023-10-19T10:57:34;11.63;91.93
49489;SHT31;35382;51.484;11.476;2023-10-19T11:00:04;11.50;90.79
49489;SHT31;35382;51.484;11.476;2023-10-19T11:02:29;11.49;91.57
49489;SHT31;35382;51.484;11.476;2023-10-19T11:04:55;11.66;91.60
49489;SHT31;35382;51.484;11.476;2023-10-19T11:07:20;11.69;91.45
49489;SHT31;35382;51.484;11.476;2023-10-19T11:09:46;11.74;91.27
49489;SHT31;35382;51.484;11.476;2023-10-19T11:12:13;11.80;91.02
49489;SHT31;35382;51.484;11.476;2023-10-19T11:14:55;12.04;91.36
49489;SHT31;35382;51.484;11.476;2023-10-19T11:17:21;12.13;89.64
49489;SHT31;35382;51.484;11.476;2023-10-19T11:19:46;12.08;90.14
49489;SHT31;35382;51.484;11.476;2023-10-19T11:22:12;12.16;90.69
49489;SHT31;35382;51.484;11.476;2023-10-19T11:24:37;12.13;90.09
49489;SHT31;35382;51.484;11.476;2023-10-19T11:27:03;12.00;89.63
49489;SHT31;35382;51.484;11.476;2023-10-19T11:29:28;12.01;90.46
49489;SHT31;35382;51.484;11.476;2023-10-19T11:31:57;12.17;90.46
49489;SHT31;35382;51.484;11.476;2023-10-19T11:34:23;12.20;90.13
49489;SHT31;35382;51.484;11.476;2023-10-19T11:36:52;12.33;90.51
49489;SHT31;35382;51.484;11.476;2023-10-19T11:39:18;12.34;88.92
49489;SHT31;35382;51.484;11.476;2023-10-19T11:41:45;12.21;89.39
49489;SHT31;35382;51.484;11.476;2023-10-19T11:44:11;12.06;90.37
49489;SHT31;35382;51.484;11.476;2023-10-19T11:46:36;12.07;90.08
49489;SHT31;35382;51.484;11.476;2023-10-19T11:49:02;12.23;91.36
49489;SHT31;35382;51.484;11.476;2023-10-19T11:51:27;12.37;91.11
49489;SHT31;35382;51.484;11.476;2023-10-19T11:53:52;12.42;90.71
49489;SHT31;35382;51.484;11.476;2023-10-19T11:56:18;12.23;90.73
49489;SHT31;35382;51.484;11.476;2023-10-19T11:58:43;12.24;90.49
49489;SHT31;35382;51.484;11.476;2023-10-19T12:01:10;12.18;90.84
49489;SHT31;35382;51.484;11.476;2023-10-19T12:03:36;12.33;91.19
49489;SHT31;35382;51.484;11.476;2023-10-19T12:06:01;12.36;91.16
49489;SHT31;35382;51.484;11.476;2023-10-19T12:08:26;12.24;91.04
49489;SHT31;35382;51.484;11.476;2023-10-19T12:10:52;12.12;90.87
49489;SHT31;35382;51.484;11.476;2023-10-19T12:13:17;12.18;91.67
49489;SHT31;35382;51.484;11.476;2023-10-19T12:15:43;12.20;91.61
49489;SHT31;35382;51.484;11.476;2023-10-19T12:18:08;12.34;91.78
49489;SHT31;35382;51.484;11.476;2023-10-19T12:20:35;12.40;91.37
49489;SHT31;35382;51.484;11.476;2023-10-19T12:23:01;12.40;90.77
49489;SHT31;35382;51.484;11.476;2023-10-19T12:25:29;12.21;91.40
49489;SHT31;35382;51.484;11.476;2023-10-19T12:27:56;12.06;92.28
49489;SHT31;35382;51.484;11.476;2023-10-19T12:30:21;11.98;93.10
49489;SHT31;35382;51.484;11.476;2023-10-19T12:32:47;11.96;93.65
49489;SHT31;35382;51.484;11.476;2023-10-19T12:35:13;12.12;93.47
49489;SHT31;35382;51.484;11.476;2023-10-19T12:37:38;12.13;93.04
49489;SHT31;35382;51.484;11.476;2023-10-19T12:40:08;12.12;93.72
49489;SHT31;35382;51.484;11.476;2023-10-19T12:42:33;12.07;93.74
49489;SHT31;35382;51.484;11.476;2023-10-19T12:44:59;12.06;94.08
49489;SHT31;35382;51.484;11.476;2023-10-19T12:47:24;12.20;93.91
49489;SHT31;35382;51.484;11.476;2023-10-19T12:49:50;12.03;94.02
49489;SHT31;35382;51.484;11.476;2023-10-19T12:52:15;12.00;93.84
49489;SHT31;35382;51.484;11.476;2023-10-19T12:54:40;11.93;94.09
49489;SHT31;35382;51.484;11.476;2023-10-19T12:57:06;11.93;94.28
49489;SHT31;35382;51.484;11.476;2023-10-19T12:59:31;11.96;94.41
49489;SHT31;35382;51.484;11.476;2023-10-19T13:01:57;11.84;94.79
49489;SHT31;35382;51.484;11.476;2023-10-19T13:04:22;11.72;94.98
49489;SHT31;35382;51.484;11.476;2023-10-19T13:06:52;11.76;95.28
49489;SHT31;35382;51.484;11.476;2023-10-19T13:09:18;11.65;95.91
49489;SHT31;35382;51.484;11.476;2023-10-19T13:11:43;11.77;95.03
49489;SHT31;35382;51.484;11.476;2023-10-19T13:14:10;11.76;95.27
49489;SHT31;35382;51.484;11.476;2023-10-19T13:16:35;11.73;95.48
49489;SHT31;35382;51.484;11.476;2023-10-19T13:19:01;11.74;95.77
49489;SHT31;35382;51.484;11.476;2023-10-19T13:21:26;11.73;96.27
49489;SHT31;35382;51.484;11.476;2023-10-19T13:23:52;11.77;96.60
49489;SHT31;35382;51.484;11.476;2023-10-19T13:26:20;11.86;96.74
49489;SHT31;35382;51.484;11.476;2023-10-19T13:28:46;12.01;96.51
49489;SHT31;35382;51.484;11.476;2023-10-19T13:31:11;12.26;96.18
49489;SHT31;35382;51.484;11.476;2023-10-19T13:33:40;12.44;95.77
49489;SHT31;35382;51.484;11.476;2023-10-19T13:36:06;12.51;95.65
49489;SHT31;35382;51.484;11.476;2023-10-19T13:38:31;12.72;95.18
49489;SHT31;35382;51.484;11.476;2023-10-19T13:40:57;12.82;95.10
49489;SHT31;35382;51.484;11.476;2023-10-19T13:43:22;13.14;94.88
49489;SHT31;35382;51.484;11.476;2023-10-19T13:45:48;13.36;94.17
49489;SHT31;35382;51.484;11.476;2023-10-19T13:48:14;13.36;93.97
49489;SHT31;35382;51.484;11.476;2023-10-19T13:50:47;13.42;93.85
49489;SHT31;35382;51.484;11.476;2023-10-19T13:53:12;13.25;93.81
49489;SHT31;35382;51.484;11.476;2023-10-19T13:55:38;13.23;94.20
49489;SHT31;35382;51.484;11.476;2023-10-19T13:58:03;13.18;93.94
49489;SHT31;35382;51.484;11.476;2023-10-19T14:00:29;13.11;93.44
49489;SHT31;35382;51.484;11.476;2023-10-19T14:02:54;13.12;93.91
49489;SHT31;35382;51.484;11.476;2023-10-19T14:05:20;13.04;94.09
49489;SHT31;35382;51.484;11.476;2023-10-19T14:07:46;13.09;93.91
49489;SHT31;35382;51.484;11.476;2023-10-19T14:10:12;13.01;94.16
49489;SHT31;35382;51.484;11.476;2023-10-19T14:12:41;13.05;93.93
49489;SHT31;35382;51.484;11.476;2023-10-19T14:15:08;13.12;93.84
49489;SHT31;35382;51.484;11.476;2023-10-19T14:17:33;13.14;93.72
49489;SHT31;35382;51.484;11.476;2023-10-19T14:19:59;13.28;93.78
49489;SHT31;35382;51.484;11.476;2023-10-19T14:22:24;13.26;93.73
49489;SHT31;35382;51.484;11.476;2023-10-19T14:24:50;13.18;93.64
49489;SHT31;35382;51.484;11.476;2023-10-19T14:27:18;13.11;93.12
49489;SHT31;35382;51.484;11.476;2023-10-19T14:29:46;13.14;93.00
49489;SHT31;35382;51.484;11.476;2023-10-19T14:32:12;13.01;93.20
49489;SHT31;35382;51.484;11.476;2023-10-19T14:34:37;12.88;93.53
49489;SHT31;35382;51.484;11.476;2023-10-19T14:37:02;12.88;93.93
49489;SHT31;35382;51.484;11.476;2023-10-19T14:39:28;13.05;93.21
49489;SHT31;35382;51.484;11.476;2023-10-19T14:41:53;12.88;94.31
49489;SHT31;35382;51.484;11.476;2023-10-19T14:44:19;12.78;94.87
49489;SHT31;35382;51.484;11.476;2023-10-19T14:46:44;12.89;94.91
49489;SHT31;35382;51.484;11.476;2023-10-19T14:49:09;12.81;95.07
49489;SHT31;35382;51.484;11.476;2023-10-19T14:51:35;12.84;95.27
49489;SHT31;35382;51.484;11.476;2023-10-19T14:54:00;12.84;95.14
49489;SHT31;35382;51.484;11.476;2023-10-19T14:56:25;12.91;94.65
49489;SHT31;35382;51.484;11.476;2023-10-19T14:58:51;12.91;94.95
49489;SHT31;35382;51.484;11.476;2023-10-19T15:01:23;12.92;95.15
49489;SHT31;35382;51.484;11.476;2023-10-19T15:03:49;12.94;95.27
49489;SHT31;35382;51.484;11.476;2023-10-19T15:06:14;12.84;95.47
49489;SHT31;35382;51.484;11.476;2023-10-19T15:08:39;12.82;95.53
49489;SHT31;35382;51.484;11.476;2023-10-19T15:11:05;12.72;96.14
49489;SHT31;35382;51.484;11.476;2023-10-19T15:13:30;12.98;95.68
49489;SHT31;35382;51.484;11.476;2023-10-19T15:15:56;12.82;95.69
49489;SHT31;35382;51.484;11.476;2023-10-19T15:18:21;12.80;96.03
49489;SHT31;35382;51.484;11.476;2023-10-19T15:20:47;12.74;96.26
49489;SHT31;35382;51.484;11.476;2023-10-19T15:23:12;12.71;96.77
49489;SHT31;35382;51.484;11.476;2023-10-19T15:25:37;12.71;96.51
49489;SHT31;35382;51.484;11.476;2023-10-19T15:28:03;12.65;96.66